createdAt,value
2019-05-30T00:00:36.784Z,52
2019-05-30T00:01:38.965Z,52
2019-05-30T00:02:41.410Z,52
2019-05-30T00:03:43.866Z,52
2019-05-30T00:04:46.381Z,52
2019-05-30T00:05:48.595Z,52
2019-05-30T00:06:50.834Z,52
2019-05-30T00:07:54.302Z,52
2019-05-30T00:08:58.338Z,52
2019-05-30T00:10:03.134Z,52
2019-05-30T00:11:07.110Z,52
2019-05-30T00:12:09.723Z,51
2019-05-30T00:13:11.913Z,52
2019-05-30T00:14:14.438Z,52
2019-05-30T00:15:16.610Z,52
2019-05-30T00:16:19.062Z,52
2019-05-30T00:17:21.255Z,52
2019-05-30T00:18:23.428Z,52
2019-05-30T00:19:25.997Z,52
2019-05-30T00:20:28.174Z,53
2019-05-30T00:21:30.395Z,52
2019-05-30T00:22:32.621Z,52
2019-05-30T00:23:34.821Z,52
2019-05-30T00:24:37.356Z,52
2019-05-30T00:25:39.760Z,52
2019-05-30T00:26:42.015Z,53
2019-05-30T00:27:44.181Z,53
2019-05-30T00:28:46.433Z,53
2019-05-30T00:29:48.592Z,53
2019-05-30T00:30:51.854Z,52
2019-05-30T00:31:55.383Z,52
2019-05-30T00:33:01.061Z,52
2019-05-30T00:34:06.975Z,52
2019-05-30T00:35:09.723Z,52
2019-05-30T00:36:11.964Z,53
2019-05-30T00:37:14.130Z,53
2019-05-30T00:38:16.309Z,52
2019-05-30T00:39:18.542Z,52
2019-05-30T00:40:20.658Z,52
2019-05-30T00:41:22.866Z,53
2019-05-30T00:42:25.049Z,52
2019-05-30T00:43:27.220Z,52
2019-05-30T00:44:29.837Z,52
2019-05-30T00:45:32.013Z,52
2019-05-30T00:46:34.232Z,52
2019-05-30T00:47:36.408Z,52
2019-05-30T00:48:38.671Z,52
2019-05-30T00:49:40.848Z,52
2019-05-30T00:50:43.018Z,52
2019-05-30T00:51:45.535Z,52
2019-05-30T00:52:48.001Z,53
2019-05-30T00:53:50.523Z,52
2019-05-30T00:54:53.385Z,52
2019-05-30T00:55:58.933Z,52
2019-05-30T00:57:02.895Z,51
2019-05-30T00:58:08.202Z,51
2019-05-30T00:59:10.428Z,51
2019-05-30T01:00:12.598Z,51
2019-05-30T01:01:14.839Z,51
2019-05-30T01:02:17.282Z,52
2019-05-30T01:03:19.456Z,51
2019-05-30T01:04:21.936Z,51
2019-05-30T01:05:28.320Z,51
2019-05-30T01:06:30.533Z,51
2019-05-30T01:07:33.096Z,52
2019-05-30T01:08:35.331Z,52
2019-05-30T01:09:38.091Z,52
2019-05-30T01:10:40.275Z,52
2019-05-30T01:11:42.877Z,52
2019-05-30T01:12:44.995Z,52
2019-05-30T01:13:47.218Z,52
2019-05-30T01:14:49.424Z,52
2019-05-30T01:15:51.599Z,52
2019-05-30T01:16:54.506Z,51
2019-05-30T01:17:59.409Z,51
2019-05-30T01:19:03.578Z,51
2019-05-30T01:20:07.581Z,51
2019-05-30T01:21:10.595Z,52
2019-05-30T01:22:12.798Z,52
2019-05-30T01:23:15.295Z,52
2019-05-30T01:24:17.753Z,51
2019-05-30T01:25:20.233Z,52
2019-05-30T01:26:22.792Z,52
2019-05-30T01:27:24.963Z,52
2019-05-30T01:28:27.217Z,51
2019-05-30T01:29:29.674Z,51
2019-05-30T01:30:31.826Z,52
2019-05-30T01:31:34.095Z,51
2019-05-30T01:32:36.545Z,51
2019-05-30T01:33:38.980Z,52
2019-05-30T01:34:41.449Z,51
2019-05-30T01:35:44.010Z,51
2019-05-30T01:36:46.262Z,52
2019-05-30T01:37:48.435Z,52
2019-05-30T01:38:50.634Z,52
2019-05-30T01:39:53.393Z,52
2019-05-30T01:40:55.599Z,51
2019-05-30T01:42:00.106Z,52
2019-05-30T01:43:04.260Z,52
2019-05-30T01:44:08.597Z,52
2019-05-30T01:45:10.754Z,52
2019-05-30T01:46:12.986Z,52
2019-05-30T01:47:15.156Z,52
2019-05-30T01:48:17.656Z,52
2019-05-30T01:49:19.834Z,52
2019-05-30T01:50:22.402Z,52
2019-05-30T01:51:24.597Z,52
2019-05-30T01:52:26.752Z,52
2019-05-30T01:53:29.322Z,52
2019-05-30T01:54:31.918Z,52
2019-05-30T01:55:35.115Z,53
2019-05-30T01:56:37.344Z,53
2019-05-30T01:57:39.794Z,52
2019-05-30T01:58:42.074Z,52
2019-05-30T01:59:44.356Z,52
2019-05-30T02:00:46.519Z,52
2019-05-30T02:01:49.390Z,52
2019-05-30T02:02:51.562Z,53
2019-05-30T02:03:53.786Z,52
2019-05-30T02:04:55.989Z,53
2019-05-30T02:05:59.544Z,53
2019-05-30T02:07:05.613Z,53
2019-05-30T02:08:09.869Z,53
2019-05-30T02:09:13.071Z,53
2019-05-30T02:10:15.253Z,53
2019-05-30T02:11:17.783Z,53
2019-05-30T02:12:20.354Z,53
2019-05-30T02:13:22.858Z,53
2019-05-30T02:14:25.035Z,53
2019-05-30T02:15:27.150Z,53
2019-05-30T02:16:29.688Z,53
2019-05-30T02:17:31.872Z,53
2019-05-30T02:18:33.994Z,53
2019-05-30T02:19:36.129Z,53
2019-05-30T02:20:38.289Z,53
2019-05-30T02:21:41.532Z,53
2019-05-30T02:22:43.693Z,54
2019-05-30T02:23:46.252Z,54
2019-05-30T02:24:49.108Z,54
2019-05-30T02:25:51.324Z,54
2019-05-30T02:26:53.513Z,54
2019-05-30T02:27:56.319Z,54
2019-05-30T02:28:58.530Z,54
2019-05-30T02:30:15.233Z,54
2019-05-30T02:31:40.713Z,54
2019-05-30T02:32:43.605Z,54
2019-05-30T02:33:45.983Z,55
2019-05-30T02:34:48.271Z,54
2019-05-30T02:35:50.552Z,54
2019-05-30T02:36:53.327Z,55
2019-05-30T02:37:56.102Z,54
2019-05-30T02:38:58.334Z,55
2019-05-30T02:40:15.660Z,54
2019-05-30T02:41:18.531Z,55
2019-05-30T02:42:20.713Z,55
2019-05-30T02:43:22.942Z,55
2019-05-30T02:44:25.364Z,55
2019-05-30T02:45:27.619Z,55
2019-05-30T02:46:30.106Z,55
2019-05-30T02:47:32.279Z,55
2019-05-30T02:48:34.832Z,54
2019-05-30T02:49:37.688Z,55
2019-05-30T02:50:40.207Z,55
2019-05-30T02:51:42.797Z,55
2019-05-30T02:52:45.366Z,55
2019-05-30T02:53:47.889Z,55
2019-05-30T02:54:50.087Z,55
2019-05-30T02:55:53.023Z,54
2019-05-30T02:56:56.302Z,55
2019-05-30T02:57:59.255Z,55
2019-05-30T02:59:13.575Z,55
2019-05-30T03:00:19.430Z,54
2019-05-30T03:01:21.847Z,54
2019-05-30T03:02:24.036Z,55
2019-05-30T03:03:26.513Z,54
2019-05-30T03:04:28.727Z,54
2019-05-30T03:05:31.624Z,55
2019-05-30T03:06:35.017Z,55
2019-05-30T03:07:37.501Z,55
2019-05-30T03:08:40.587Z,55
2019-05-30T03:09:43.730Z,55
2019-05-30T03:10:45.995Z,55
2019-05-30T03:11:48.840Z,54
2019-05-30T03:12:51.097Z,55
2019-05-30T03:13:53.767Z,55
2019-05-30T03:14:55.967Z,54
2019-05-30T03:15:58.266Z,55
2019-05-30T03:17:07.756Z,55
2019-05-30T03:18:16.481Z,55
2019-05-30T03:19:18.905Z,54
2019-05-30T03:20:24.434Z,55
2019-05-30T03:21:26.932Z,55
2019-05-30T03:22:29.098Z,55
2019-05-30T03:23:31.284Z,55
2019-05-30T03:24:33.768Z,55
2019-05-30T03:25:36.871Z,55
2019-05-30T03:26:40.030Z,55
2019-05-30T03:27:42.282Z,55
2019-05-30T03:28:44.907Z,55
2019-05-30T03:29:47.752Z,55
2019-05-30T03:30:50.057Z,55
2019-05-30T03:31:52.327Z,55
2019-05-30T03:33:44.118Z,55
2019-05-30T03:34:47.024Z,55
2019-05-30T03:35:49.560Z,55
2019-05-30T03:36:52.471Z,55
2019-05-30T03:37:55.471Z,55
2019-05-30T03:38:57.670Z,55
2019-05-30T03:40:00.797Z,55
2019-05-30T03:41:09.072Z,55
2019-05-30T03:42:17.265Z,55
2019-05-30T03:43:19.803Z,55
2019-05-30T03:44:22.678Z,55
2019-05-30T03:45:24.847Z,55
2019-05-30T03:46:28.130Z,55
2019-05-30T03:47:30.339Z,55
2019-05-30T03:48:32.507Z,55
2019-05-30T03:49:34.643Z,55
2019-05-30T03:50:36.874Z,55
2019-05-30T03:51:39.581Z,55
2019-05-30T03:52:42.209Z,55
2019-05-30T03:53:44.824Z,55
2019-05-30T03:54:47.305Z,56
2019-05-30T03:55:49.982Z,56
2019-05-30T03:56:52.862Z,56
2019-05-30T03:57:55.099Z,55
2019-05-30T03:58:57.694Z,55
2019-05-30T04:00:00.544Z,54
2019-05-30T04:01:03.544Z,55
2019-05-30T04:02:15.697Z,55
2019-05-30T04:03:20.296Z,54
2019-05-30T04:04:22.412Z,55
2019-05-30T04:05:25.637Z,55
2019-05-30T04:06:28.625Z,54
2019-05-30T04:07:30.821Z,55
2019-05-30T04:08:33.090Z,55
2019-05-30T04:09:35.264Z,54
2019-05-30T04:10:37.503Z,54
2019-05-30T04:11:40.295Z,54
2019-05-30T04:12:42.986Z,55
2019-05-30T04:13:45.236Z,54
2019-05-30T04:14:47.439Z,54
2019-05-30T04:15:50.384Z,55
2019-05-30T04:16:52.594Z,54
2019-05-30T04:17:54.810Z,54
2019-05-30T04:18:57.303Z,54
2019-05-30T04:20:00.208Z,54
2019-05-30T04:21:02.551Z,53
2019-05-30T04:22:08.817Z,53
2019-05-30T04:23:19.404Z,53
2019-05-30T04:24:21.758Z,53
2019-05-30T04:25:24.397Z,53
2019-05-30T04:26:27.851Z,53
2019-05-30T04:27:30.365Z,53
2019-05-30T04:28:32.655Z,52
2019-05-30T04:29:34.838Z,53
2019-05-30T04:30:37.739Z,53
2019-05-30T04:31:39.936Z,53
2019-05-30T04:32:42.159Z,52
2019-05-30T04:33:44.614Z,52
2019-05-30T04:34:47.181Z,53
2019-05-30T04:35:49.807Z,52
2019-05-30T04:36:54.776Z,52
2019-05-30T04:37:57.387Z,52
2019-05-30T04:39:00.271Z,52
2019-05-30T04:40:02.936Z,52
2019-05-30T04:41:06.447Z,52
2019-05-30T04:42:18.137Z,52
2019-05-30T04:43:22.688Z,52
2019-05-30T04:44:24.867Z,52
2019-05-30T04:45:29.337Z,52
2019-05-30T04:46:31.540Z,52
2019-05-30T04:47:34.081Z,52
2019-05-30T04:48:36.342Z,51
2019-05-30T04:49:38.533Z,52
2019-05-30T04:50:40.789Z,52
2019-05-30T04:51:43.280Z,51
2019-05-30T04:52:45.757Z,51
2019-05-30T04:53:48.311Z,52
2019-05-30T04:54:51.577Z,51
2019-05-30T04:55:53.710Z,51
2019-05-30T04:56:56.190Z,50
2019-05-30T04:57:58.737Z,50
2019-05-30T04:59:01.263Z,50
2019-05-30T05:00:03.840Z,50
2019-05-30T05:01:06.702Z,50
2019-05-30T05:02:11.268Z,50
2019-05-30T05:03:44.874Z,50
2019-05-30T05:04:49.665Z,50
2019-05-30T05:05:52.134Z,50
2019-05-30T05:06:54.878Z,50
2019-05-30T05:07:57.006Z,50
2019-05-30T05:08:59.589Z,49
2019-05-30T05:10:02.157Z,49
2019-05-30T05:11:04.992Z,49
2019-05-30T05:12:07.717Z,49
2019-05-30T05:13:09.971Z,49
2019-05-30T05:14:14.705Z,49
2019-05-30T05:15:20.581Z,49
2019-05-30T05:16:37.587Z,49
2019-05-30T05:17:40.110Z,48
2019-05-30T05:18:42.613Z,48
2019-05-30T05:19:44.816Z,48
2019-05-30T05:20:47.434Z,48
2019-05-30T05:21:50.160Z,47
2019-05-30T05:22:52.802Z,47
2019-05-30T05:23:54.983Z,47
2019-05-30T05:24:57.231Z,47
2019-05-30T05:26:02.368Z,47
2019-05-30T05:27:05.493Z,47
2019-05-30T05:28:07.706Z,46
2019-05-30T05:29:10.244Z,46
2019-05-30T05:30:14.515Z,46
2019-05-30T05:31:22.372Z,46
2019-05-30T05:32:25.949Z,46
2019-05-30T05:33:28.690Z,46
2019-05-30T05:34:31.274Z,46
2019-05-30T05:35:33.507Z,46
2019-05-30T05:36:35.694Z,46
2019-05-30T05:37:38.301Z,45
2019-05-30T05:38:40.494Z,45
2019-05-30T05:39:42.665Z,45
2019-05-30T05:40:45.179Z,45
2019-05-30T05:41:47.368Z,45
2019-05-30T05:42:49.592Z,45
2019-05-30T05:43:52.062Z,44
2019-05-30T05:44:54.294Z,44
2019-05-30T05:45:56.509Z,45
2019-05-30T05:46:59.230Z,44
2019-05-30T05:48:01.479Z,44
2019-05-30T05:49:04.075Z,44
2019-05-30T05:50:06.984Z,44
2019-05-30T05:51:09.185Z,44
2019-05-30T05:52:13.132Z,44
2019-05-30T05:53:16.787Z,44
2019-05-30T05:54:21.016Z,44
2019-05-30T05:55:25.532Z,44
2019-05-30T05:56:29.318Z,44
2019-05-30T05:57:31.982Z,43
2019-05-30T05:58:34.567Z,44
2019-05-30T05:59:36.746Z,43
2019-05-30T06:00:39.232Z,43
2019-05-30T06:01:41.733Z,43
2019-05-30T06:02:43.951Z,44
2019-05-30T06:03:46.140Z,43
2019-05-30T06:04:48.386Z,43
2019-05-30T06:05:54.710Z,43
2019-05-30T06:06:56.900Z,43
2019-05-30T06:07:59.132Z,43
2019-05-30T06:09:01.654Z,43
2019-05-30T06:10:04.212Z,42
2019-05-30T06:11:07.012Z,42
2019-05-30T06:12:09.238Z,42
2019-05-30T06:13:11.423Z,42
2019-05-30T06:14:13.610Z,42
2019-05-30T06:15:17.211Z,42
2019-05-30T06:16:22.181Z,42
2019-05-30T06:17:26.113Z,41
2019-05-30T06:18:29.354Z,41
2019-05-30T06:19:47.682Z,41
2019-05-30T06:20:49.830Z,41
2019-05-30T06:21:55.492Z,41
2019-05-30T06:22:57.677Z,41
2019-05-30T06:23:59.903Z,41
2019-05-30T06:25:03.836Z,41
2019-05-30T06:26:07.063Z,41
2019-05-30T06:27:09.288Z,41
2019-05-30T06:28:11.476Z,40
2019-05-30T06:29:13.962Z,41
2019-05-30T06:30:16.200Z,40
2019-05-30T06:31:20.483Z,41
2019-05-30T06:32:26.640Z,40
2019-05-30T06:33:30.343Z,40
2019-05-30T06:34:41.249Z,40
2019-05-30T06:35:44.177Z,40
2019-05-30T06:36:46.339Z,40
2019-05-30T06:37:48.531Z,40
2019-05-30T06:38:50.734Z,40
2019-05-30T06:39:53.267Z,40
2019-05-30T06:40:55.469Z,39
2019-05-30T06:41:57.701Z,40
2019-05-30T06:42:59.879Z,40
2019-05-30T06:44:06.960Z,40
2019-05-30T06:45:09.161Z,39
2019-05-30T06:46:11.381Z,39
2019-05-30T06:47:13.638Z,39
2019-05-30T06:48:15.842Z,39
2019-05-30T06:49:18.360Z,39
2019-05-30T06:50:23.123Z,39
2019-05-30T06:51:29.225Z,39
2019-05-30T06:52:33.035Z,39
2019-05-30T06:53:35.216Z,39
2019-05-30T06:54:37.490Z,39
2019-05-30T06:55:39.669Z,39
2019-05-30T06:56:45.629Z,39
2019-05-30T06:57:48.146Z,39
2019-05-30T06:58:50.707Z,39
2019-05-30T06:59:52.952Z,39
2019-05-30T07:00:55.548Z,39
2019-05-30T07:01:57.804Z,39
2019-05-30T07:03:00.784Z,39
2019-05-30T07:04:05.402Z,40
2019-05-30T07:05:12.917Z,39
2019-05-30T07:06:19.341Z,38
2019-05-30T07:07:27.036Z,39
2019-05-30T07:08:33.028Z,39
2019-05-30T07:09:35.697Z,39
2019-05-30T07:10:37.872Z,39
2019-05-30T07:11:40.143Z,39
2019-05-30T07:12:42.339Z,39
2019-05-30T07:13:44.553Z,39
2019-05-30T07:14:46.816Z,40
2019-05-30T07:15:50.116Z,39
2019-05-30T07:16:52.454Z,39
2019-05-30T07:17:54.960Z,39
2019-05-30T07:18:57.335Z,40
2019-05-30T07:19:59.505Z,39
2019-05-30T07:21:01.703Z,39
2019-05-30T07:22:04.633Z,39
2019-05-30T07:23:07.212Z,40
2019-05-30T07:24:10.195Z,40
2019-05-30T07:25:12.456Z,39
2019-05-30T07:26:15.006Z,39
2019-05-30T07:27:17.468Z,39
2019-05-30T07:28:19.696Z,39
2019-05-30T07:29:23.858Z,38
2019-05-30T07:30:28.078Z,38
2019-05-30T07:31:32.409Z,38
2019-05-30T07:32:35.032Z,38
2019-05-30T07:33:37.504Z,38
2019-05-30T07:34:39.705Z,38
2019-05-30T07:35:42.278Z,39
2019-05-30T07:36:44.793Z,39
2019-05-30T07:37:48.838Z,38
2019-05-30T07:38:51.091Z,39
2019-05-30T07:39:53.933Z,39
2019-05-30T07:40:56.457Z,39
2019-05-30T07:42:08.018Z,39
2019-05-30T07:43:10.493Z,38
2019-05-30T07:44:13.009Z,39
2019-05-30T07:45:15.209Z,38
2019-05-30T07:46:17.403Z,38
2019-05-30T07:47:19.599Z,39
2019-05-30T07:48:21.804Z,39
2019-05-30T07:49:24.102Z,39
2019-05-30T07:50:28.527Z,38
2019-05-30T07:51:32.876Z,39
2019-05-30T07:52:35.743Z,39
2019-05-30T07:53:39.056Z,39
2019-05-30T07:54:41.734Z,39
2019-05-30T07:55:43.928Z,38
2019-05-30T07:56:46.553Z,38
2019-05-30T07:57:49.172Z,38
2019-05-30T07:58:51.368Z,38
2019-05-30T07:59:53.594Z,38
2019-05-30T08:00:55.840Z,38
2019-05-30T08:01:58.442Z,38
2019-05-30T08:03:00.977Z,38
2019-05-30T08:04:03.563Z,38
2019-05-30T08:05:26.734Z,37
2019-05-30T08:06:31.354Z,38
2019-05-30T08:07:35.614Z,38
2019-05-30T08:08:39.014Z,38
2019-05-30T08:09:41.623Z,38
2019-05-30T08:10:43.836Z,38
2019-05-30T08:11:46.112Z,38
2019-05-30T08:12:48.640Z,38
2019-05-30T08:14:10.099Z,38
2019-05-30T08:15:12.324Z,38
2019-05-30T08:16:14.508Z,38
2019-05-30T08:17:16.717Z,38
2019-05-30T08:18:18.894Z,38
2019-05-30T08:19:21.155Z,38
2019-05-30T08:20:23.355Z,38
2019-05-30T08:21:25.893Z,38
2019-05-30T08:22:30.114Z,38
2019-05-30T08:23:34.142Z,38
2019-05-30T08:24:39.969Z,37
2019-05-30T08:25:42.804Z,37
2019-05-30T08:26:45.070Z,37
2019-05-30T08:27:47.242Z,37
2019-05-30T08:28:49.489Z,37
2019-05-30T08:29:51.678Z,37
2019-05-30T08:30:57.731Z,38
2019-05-30T08:31:59.934Z,37
2019-05-30T08:33:02.499Z,38
2019-05-30T08:34:04.781Z,38
2019-05-30T08:35:06.949Z,37
2019-05-30T08:36:09.214Z,37
2019-05-30T08:37:11.402Z,37
2019-05-30T08:38:13.590Z,37
2019-05-30T08:39:15.965Z,37
2019-05-30T08:40:18.149Z,37
2019-05-30T08:41:20.402Z,37
2019-05-30T08:42:22.607Z,37
2019-05-30T08:43:24.859Z,37
2019-05-30T08:44:27.033Z,36
2019-05-30T08:45:31.727Z,36
2019-05-30T08:46:35.740Z,36
2019-05-30T08:47:40.370Z,36
2019-05-30T08:48:43.888Z,36
2019-05-30T08:49:46.065Z,36
2019-05-30T08:50:48.585Z,36
2019-05-30T08:51:50.789Z,35
2019-05-30T08:52:52.999Z,35
2019-05-30T08:53:55.642Z,35
2019-05-30T08:54:58.222Z,35
2019-05-30T08:56:00.454Z,35
2019-05-30T08:57:02.976Z,34
2019-05-30T08:58:05.453Z,34
2019-05-30T08:59:07.654Z,34
2019-05-30T09:00:09.864Z,34
2019-05-30T09:01:12.406Z,33
2019-05-30T09:02:17.656Z,33
2019-05-30T09:03:20.473Z,34
2019-05-30T09:04:22.735Z,34
2019-05-30T09:05:25.352Z,34
2019-05-30T09:06:27.767Z,34
2019-05-30T09:07:32.700Z,34
2019-05-30T09:08:37.897Z,34
2019-05-30T09:09:42.448Z,34
2019-05-30T09:10:47.051Z,34
2019-05-30T09:11:49.524Z,34
2019-05-30T09:12:52.073Z,35
2019-05-30T09:13:54.835Z,35
2019-05-30T09:14:57.066Z,34
2019-05-30T09:15:59.831Z,34
2019-05-30T09:17:02.714Z,34
2019-05-30T09:18:04.934Z,34
2019-05-30T09:19:07.149Z,34
2019-05-30T09:20:09.752Z,34
2019-05-30T09:21:13.208Z,34
2019-05-30T09:22:15.511Z,33
2019-05-30T09:23:17.765Z,34
2019-05-30T09:24:20.533Z,33
2019-05-30T09:25:23.157Z,34
2019-05-30T09:26:25.336Z,34
2019-05-30T09:27:27.559Z,34
2019-05-30T09:28:30.168Z,34
2019-05-30T09:29:32.367Z,34
2019-05-30T09:30:34.651Z,33
2019-05-30T09:31:38.046Z,33
2019-05-30T09:32:48.886Z,33
2019-05-30T09:33:51.150Z,34
2019-05-30T09:34:54.108Z,34
2019-05-30T09:36:14.886Z,34
2019-05-30T09:37:17.064Z,34
2019-05-30T09:38:19.255Z,35
2019-05-30T09:39:21.563Z,35
2019-05-30T09:40:23.837Z,34
2019-05-30T09:41:26.335Z,34
2019-05-30T09:42:29.490Z,34
2019-05-30T09:43:31.780Z,34
2019-05-30T09:44:34.000Z,34
2019-05-30T09:45:36.346Z,34
2019-05-30T09:46:38.560Z,35
2019-05-30T09:47:51.619Z,35
2019-05-30T09:48:54.721Z,35
2019-05-30T09:49:56.961Z,35
2019-05-30T09:50:59.391Z,35
2019-05-30T09:52:02.066Z,34
2019-05-30T09:53:07.454Z,34
2019-05-30T09:54:10.711Z,35
2019-05-30T09:55:13.374Z,35
2019-05-30T09:56:15.696Z,34
2019-05-30T09:57:18.359Z,35
2019-05-30T09:58:20.887Z,35
2019-05-30T09:59:23.138Z,35
2019-05-30T10:00:25.794Z,35
2019-05-30T10:01:27.994Z,34
2019-05-30T10:02:30.651Z,35
2019-05-30T10:03:34.007Z,35
2019-05-30T10:04:36.476Z,34
2019-05-30T10:05:39.106Z,34
2019-05-30T10:06:44.899Z,34
2019-05-30T10:07:51.187Z,34
2019-05-30T10:08:54.103Z,33
2019-05-30T10:09:56.376Z,33
2019-05-30T10:10:58.685Z,33
2019-05-30T10:12:00.989Z,34
2019-05-30T10:13:03.240Z,35
2019-05-30T10:14:05.488Z,33
2019-05-30T10:15:07.775Z,33
2019-05-30T10:16:10.102Z,33
2019-05-30T10:17:12.707Z,34
2019-05-30T10:18:15.385Z,33
2019-05-30T10:19:17.953Z,34
2019-05-30T10:20:21.057Z,34
2019-05-30T10:21:23.914Z,34
2019-05-30T10:22:26.148Z,35
2019-05-30T10:23:28.396Z,35
2019-05-30T10:24:30.612Z,35
2019-05-30T10:25:33.642Z,35
2019-05-30T10:26:35.853Z,35
2019-05-30T10:27:38.137Z,35
2019-05-30T10:28:40.356Z,36
2019-05-30T10:29:43.028Z,35
2019-05-30T10:30:59.698Z,35
2019-05-30T10:32:01.870Z,35
2019-05-30T10:33:04.866Z,35
2019-05-30T10:34:07.863Z,35
2019-05-30T10:35:10.653Z,36
2019-05-30T10:36:15.775Z,36
2019-05-30T10:37:18.086Z,36
2019-05-30T10:38:21.185Z,35
2019-05-30T10:39:24.018Z,36
2019-05-30T10:40:26.362Z,35
2019-05-30T10:41:28.479Z,36
2019-05-30T10:42:30.792Z,36
2019-05-30T10:43:32.977Z,36
2019-05-30T10:44:35.185Z,36
2019-05-30T10:45:39.837Z,37
2019-05-30T10:46:42.440Z,37
2019-05-30T10:47:49.565Z,38
2019-05-30T10:48:56.729Z,38
2019-05-30T10:49:59.411Z,38
2019-05-30T10:51:01.635Z,38
2019-05-30T10:52:03.870Z,38
2019-05-30T10:53:06.146Z,38
2019-05-30T10:54:08.336Z,38
2019-05-30T10:55:10.597Z,39
2019-05-30T10:56:13.183Z,40
2019-05-30T10:57:15.772Z,41
2019-05-30T10:58:17.970Z,41
2019-05-30T10:59:21.084Z,42
2019-05-30T11:00:23.342Z,41
2019-05-30T11:01:25.835Z,42
2019-05-30T11:02:28.089Z,42
2019-05-30T11:03:30.682Z,41
2019-05-30T11:04:32.872Z,41
2019-05-30T11:05:35.366Z,41
2019-05-30T11:06:37.930Z,41
2019-05-30T11:08:07.267Z,41
2019-05-30T11:09:09.408Z,41
2019-05-30T11:10:11.886Z,40
2019-05-30T11:11:14.309Z,40
2019-05-30T11:12:16.540Z,40
2019-05-30T11:13:18.724Z,40
2019-05-30T11:14:20.898Z,40
2019-05-30T11:15:23.564Z,40
2019-05-30T11:16:26.427Z,40
2019-05-30T11:17:28.676Z,41
2019-05-30T11:18:30.868Z,40
2019-05-30T11:19:33.156Z,40
2019-05-30T11:20:35.362Z,40
2019-05-30T11:21:37.838Z,39
2019-05-30T11:22:40.110Z,40
2019-05-30T11:23:42.281Z,40
2019-05-30T11:24:44.544Z,40
2019-05-30T11:25:46.722Z,40
2019-05-30T11:26:58.873Z,41
2019-05-30T11:28:01.188Z,40
2019-05-30T11:29:03.360Z,40
2019-05-30T11:30:05.626Z,41
2019-05-30T11:31:07.854Z,41
2019-05-30T11:32:10.385Z,41
2019-05-30T11:33:12.846Z,41
2019-05-30T11:34:15.035Z,41
2019-05-30T11:35:17.281Z,41
2019-05-30T11:36:19.877Z,41
2019-05-30T11:37:22.106Z,41
2019-05-30T11:38:24.291Z,41
2019-05-30T11:39:26.440Z,40
2019-05-30T11:40:28.602Z,40
2019-05-30T11:41:31.470Z,40
2019-05-30T11:42:34.009Z,41
2019-05-30T11:43:36.489Z,40
2019-05-30T11:44:39.028Z,40
2019-05-30T11:45:41.783Z,41
2019-05-30T11:46:43.965Z,41
2019-05-30T11:47:46.481Z,40
2019-05-30T11:48:49.920Z,41
2019-05-30T11:49:55.653Z,40
2019-05-30T11:51:00.202Z,41
2019-05-30T11:52:02.460Z,41
2019-05-30T11:53:05.038Z,41
2019-05-30T11:54:07.237Z,41
2019-05-30T11:55:09.488Z,41
2019-05-30T11:56:11.685Z,41
2019-05-30T11:57:13.905Z,41
2019-05-30T11:58:20.833Z,42
2019-05-30T11:59:23.077Z,43
2019-05-30T12:00:25.289Z,42
2019-05-30T12:01:27.726Z,43
2019-05-30T12:02:29.946Z,43
2019-05-30T12:03:32.664Z,43
2019-05-30T12:04:34.976Z,44
2019-05-30T12:05:37.580Z,44
2019-05-30T12:06:39.822Z,44
2019-05-30T12:07:42.146Z,44
2019-05-30T12:08:46.089Z,45
2019-05-30T12:09:48.362Z,44
2019-05-30T12:10:55.382Z,45
2019-05-30T12:11:59.868Z,45
2019-05-30T12:13:03.672Z,44
2019-05-30T12:14:05.866Z,44
2019-05-30T12:15:08.542Z,44
2019-05-30T12:16:10.739Z,45
2019-05-30T12:17:12.986Z,44
2019-05-30T12:18:15.178Z,45
2019-05-30T12:19:17.775Z,45
2019-05-30T12:20:20.615Z,46
2019-05-30T12:21:23.077Z,45
2019-05-30T12:22:25.350Z,45
2019-05-30T12:23:27.545Z,45
2019-05-30T12:24:29.823Z,45
2019-05-30T12:25:32.374Z,44
2019-05-30T12:26:34.990Z,45
2019-05-30T12:27:37.643Z,46
2019-05-30T12:28:40.107Z,46
2019-05-30T12:29:42.364Z,45
2019-05-30T12:31:07.556Z,45
2019-05-30T12:32:10.433Z,45
2019-05-30T12:33:12.909Z,46
2019-05-30T12:34:15.120Z,46
2019-05-30T12:35:17.244Z,46
2019-05-30T12:36:19.503Z,45
2019-05-30T12:37:24.495Z,45
2019-05-30T12:38:26.669Z,45
2019-05-30T12:39:28.969Z,46
2019-05-30T12:40:31.475Z,46
2019-05-30T12:41:34.436Z,46
2019-05-30T12:42:36.715Z,46
2019-05-30T12:43:38.906Z,46
2019-05-30T12:44:41.224Z,46
2019-05-30T12:45:43.716Z,46
2019-05-30T12:46:46.047Z,46
2019-05-30T12:47:48.509Z,47
2019-05-30T12:48:50.709Z,46
2019-05-30T12:49:55.523Z,47
2019-05-30T12:50:59.263Z,47
2019-05-30T12:52:02.766Z,48
2019-05-30T12:53:08.041Z,48
2019-05-30T12:54:10.527Z,47
2019-05-30T12:55:12.778Z,47
2019-05-30T12:56:14.972Z,47
2019-05-30T12:57:17.251Z,47
2019-05-30T12:58:20.135Z,47
2019-05-30T12:59:22.399Z,47
2019-05-30T13:00:24.615Z,47
2019-05-30T13:01:28.711Z,47
2019-05-30T13:02:30.979Z,48
2019-05-30T13:03:33.199Z,47
2019-05-30T13:04:35.482Z,47
2019-05-30T13:05:38.345Z,47
2019-05-30T13:06:40.813Z,48
2019-05-30T13:07:42.958Z,48
2019-05-30T13:08:45.420Z,47
2019-05-30T13:09:47.712Z,47
2019-05-30T13:10:49.838Z,47
2019-05-30T13:11:51.940Z,47
2019-05-30T13:12:55.704Z,47
2019-05-30T13:14:00.811Z,47
2019-05-30T13:15:05.758Z,47
2019-05-30T13:16:09.969Z,47
2019-05-30T13:17:12.456Z,47
2019-05-30T13:18:14.977Z,47
2019-05-30T13:19:17.738Z,47
2019-05-30T13:20:21.144Z,47
2019-05-30T13:21:24.690Z,47
2019-05-30T13:22:26.910Z,47
2019-05-30T13:23:33.481Z,48
2019-05-30T13:24:35.641Z,48
2019-05-30T13:25:37.725Z,48
2019-05-30T13:26:40.547Z,48
2019-05-30T13:27:43.010Z,47
2019-05-30T13:28:45.102Z,48
2019-05-30T13:29:47.622Z,48
2019-05-30T13:30:49.737Z,48
2019-05-30T13:31:51.899Z,48
2019-05-30T13:32:54.000Z,48
2019-05-30T13:33:58.869Z,48
2019-05-30T13:35:03.860Z,48
2019-05-30T13:36:08.084Z,48
2019-05-30T13:37:10.536Z,48
2019-05-30T13:38:27.721Z,47
2019-05-30T13:39:30.284Z,48
2019-05-30T13:40:32.853Z,48
2019-05-30T13:41:35.093Z,48
2019-05-30T13:42:38.308Z,48
2019-05-30T13:43:40.780Z,48
2019-05-30T13:44:43.025Z,48
2019-05-30T13:45:45.811Z,48
2019-05-30T13:46:49.333Z,48
2019-05-30T13:47:51.806Z,48
2019-05-30T13:48:54.312Z,49
2019-05-30T13:49:56.979Z,49
2019-05-30T13:51:04.771Z,49
2019-05-30T13:52:10.083Z,49
2019-05-30T13:53:12.265Z,49
2019-05-30T13:54:14.485Z,49
2019-05-30T13:55:16.966Z,48
2019-05-30T13:56:19.142Z,48
2019-05-30T13:57:21.357Z,48
2019-05-30T13:58:23.821Z,48
2019-05-30T13:59:26.099Z,48
2019-05-30T14:00:28.298Z,48
2019-05-30T14:01:30.543Z,48
2019-05-30T14:02:33.033Z,48
2019-05-30T14:03:35.210Z,48
2019-05-30T14:04:37.482Z,48
2019-05-30T14:05:39.986Z,48
2019-05-30T14:06:42.190Z,47
2019-05-30T14:07:44.472Z,48
2019-05-30T14:08:46.714Z,48
2019-05-30T14:09:48.972Z,48
2019-05-30T14:10:51.138Z,47
2019-05-30T14:11:53.426Z,48
2019-05-30T14:12:58.669Z,48
2019-05-30T14:14:02.634Z,48
2019-05-30T14:15:15.494Z,48
2019-05-30T14:16:18.023Z,47
2019-05-30T14:17:20.288Z,47
2019-05-30T14:18:22.632Z,47
2019-05-30T14:19:26.152Z,47
2019-05-30T14:20:28.625Z,48
2019-05-30T14:21:30.855Z,48
2019-05-30T14:22:33.040Z,48
2019-05-30T14:23:35.211Z,48
2019-05-30T14:24:37.393Z,48
2019-05-30T14:25:39.591Z,48
2019-05-30T14:26:42.469Z,48
2019-05-30T14:27:44.597Z,48
2019-05-30T14:28:46.910Z,48
2019-05-30T14:29:49.503Z,48
2019-05-30T14:30:52.464Z,48
2019-05-30T14:31:54.944Z,49
2019-05-30T14:32:57.500Z,49
2019-05-30T14:34:00.136Z,49
2019-05-30T14:35:04.513Z,49
2019-05-30T14:36:15.371Z,49
2019-05-30T14:37:17.782Z,50
2019-05-30T14:38:19.984Z,50
2019-05-30T14:39:22.232Z,50
2019-05-30T14:40:24.411Z,50
2019-05-30T14:41:26.680Z,50
2019-05-30T14:42:28.801Z,51
2019-05-30T14:43:31.299Z,51
2019-05-30T14:44:33.470Z,50
2019-05-30T14:45:35.683Z,51
2019-05-30T14:46:38.306Z,51
2019-05-30T14:47:41.193Z,51
2019-05-30T14:48:43.497Z,52
2019-05-30T14:49:45.670Z,51
2019-05-30T14:50:47.873Z,51
2019-05-30T14:51:50.172Z,51
2019-05-30T14:52:52.362Z,50
2019-05-30T14:53:54.653Z,51
2019-05-30T14:54:57.252Z,51
2019-05-30T14:55:59.474Z,51
2019-05-30T14:57:02.277Z,51
2019-05-30T14:58:09.020Z,51
2019-05-30T14:59:12.878Z,51
2019-05-30T15:00:15.339Z,50
2019-05-30T15:01:18.477Z,51
2019-05-30T15:02:20.648Z,51